createdAt,value
2024-01-24T00:00:43.925Z,100.00
2024-01-24T00:03:14.211Z,100.00
2024-01-24T00:05:44.400Z,100.00
2024-01-24T00:08:14.480Z,100.00
2024-01-24T00:10:44.567Z,100.00
2024-01-24T00:13:17.302Z,100.00
2024-01-24T00:15:47.451Z,100.00
2024-01-24T00:18:18.199Z,100.00
2024-01-24T00:20:48.473Z,100.00
2024-01-24T00:23:18.581Z,100.00
2024-01-24T00:25:48.682Z,100.00
2024-01-24T00:28:22.422Z,100.00
2024-01-24T00:30:52.580Z,100.00
2024-01-24T00:33:24.096Z,100.00
2024-01-24T00:35:54.174Z,100.00
2024-01-24T00:38:24.224Z,100.00
2024-01-24T00:40:54.328Z,100.00
2024-01-24T00:43:27.336Z,100.00
2024-01-24T00:45:57.506Z,100.00
2024-01-24T00:48:27.800Z,100.00
2024-01-24T00:50:57.879Z,100.00
2024-01-24T00:53:29.185Z,100.00
2024-01-24T00:56:00.037Z,100.00
2024-01-24T00:58:32.738Z,100.00
2024-01-24T01:01:03.044Z,100.00
2024-01-24T01:03:33.320Z,100.00
2024-01-24T01:06:03.462Z,100.00
2024-01-24T01:08:33.539Z,100.00
2024-01-24T01:11:03.700Z,100.00
2024-01-24T01:13:36.772Z,100.00
2024-01-24T01:16:07.215Z,100.00
2024-01-24T01:18:37.443Z,100.00
2024-01-24T01:21:07.910Z,100.00
2024-01-24T01:23:38.026Z,100.00
2024-01-24T01:26:08.483Z,100.00
2024-01-24T01:28:41.466Z,100.00
2024-01-24T01:31:11.560Z,100.00
2024-01-24T01:33:41.721Z,100.00
2024-01-24T01:36:18.251Z,100.00
2024-01-24T01:38:53.351Z,100.00
2024-01-24T01:41:23.456Z,100.00
2024-01-24T01:43:56.141Z,100.00
2024-01-24T01:46:28.948Z,100.00
2024-01-24T01:49:01.920Z,100.00
2024-01-24T01:51:32.382Z,100.00
2024-01-24T01:54:02.814Z,100.00
2024-01-24T01:56:33.236Z,100.00
2024-01-24T01:59:06.802Z,100.00
2024-01-24T02:01:37.249Z,100.00
2024-01-24T02:04:07.795Z,100.00
2024-01-24T02:06:38.362Z,100.00
2024-01-24T02:09:11.280Z,100.00
2024-01-24T02:11:42.625Z,100.00
2024-01-24T02:14:15.535Z,100.00
2024-01-24T02:16:46.004Z,100.00
2024-01-24T02:19:16.274Z,100.00
2024-01-24T02:21:46.604Z,100.00
2024-01-24T02:24:19.490Z,100.00
2024-01-24T02:26:49.985Z,100.00
2024-01-24T02:29:20.073Z,100.00
2024-01-24T02:31:50.162Z,100.00
2024-01-24T02:34:20.405Z,100.00
2024-01-24T02:36:50.608Z,100.00
2024-01-24T02:39:23.479Z,100.00
2024-01-24T02:41:53.754Z,100.00
2024-01-24T02:44:23.845Z,100.00
2024-01-24T02:46:53.895Z,100.00
2024-01-24T02:49:24.084Z,100.00
2024-01-24T02:51:54.264Z,100.00
2024-01-24T02:54:27.010Z,100.00
2024-01-24T02:56:57.120Z,100.00
2024-01-24T02:59:27.537Z,100.00
2024-01-24T03:01:57.603Z,100.00
2024-01-24T03:04:28.227Z,100.00
2024-01-24T03:06:59.047Z,100.00
2024-01-24T03:09:31.865Z,100.00
2024-01-24T03:12:02.076Z,100.00
2024-01-24T03:14:32.155Z,100.00
2024-01-24T03:17:02.365Z,100.00
2024-01-24T03:19:32.703Z,100.00
2024-01-24T03:22:03.254Z,100.00
2024-01-24T03:24:35.963Z,100.00
2024-01-24T03:27:06.064Z,100.00
2024-01-24T03:29:36.361Z,100.00
2024-01-24T03:32:06.620Z,100.00
2024-01-24T03:34:36.677Z,100.00
2024-01-24T03:37:06.900Z,100.00
2024-01-24T03:39:41.686Z,100.00
2024-01-24T03:42:11.761Z,100.00
2024-01-24T03:44:41.868Z,100.00
2024-01-24T03:47:11.941Z,100.00
2024-01-24T03:49:42.082Z,100.00
2024-01-24T03:52:12.226Z,100.00
2024-01-24T03:54:44.940Z,100.00
2024-01-24T03:57:15.035Z,100.00
2024-01-24T03:59:45.105Z,100.00
2024-01-24T04:02:15.220Z,100.00
2024-01-24T04:04:45.364Z,100.00
2024-01-24T04:07:15.601Z,100.00
2024-01-24T04:09:48.427Z,100.00
2024-01-24T04:12:18.577Z,100.00
2024-01-24T04:14:48.709Z,100.00
2024-01-24T04:17:18.820Z,100.00
2024-01-24T04:19:49.056Z,100.00
2024-01-24T04:22:19.927Z,100.00
2024-01-24T04:24:52.746Z,100.00
2024-01-24T04:27:22.914Z,100.00
2024-01-24T04:29:53.339Z,100.00
2024-01-24T04:32:23.524Z,100.00
2024-01-24T04:34:57.893Z,100.00
2024-01-24T04:37:28.845Z,100.00
2024-01-24T04:40:01.662Z,100.00
2024-01-24T04:42:31.777Z,100.00
2024-01-24T04:45:01.880Z,100.00
2024-01-24T04:47:31.968Z,100.00
2024-01-24T04:50:02.351Z,100.00
2024-01-24T04:52:33.743Z,100.00
2024-01-24T04:55:07.061Z,100.00
2024-01-24T04:57:37.803Z,100.00
2024-01-24T05:00:10.466Z,100.00
2024-01-24T05:02:40.903Z,100.00
2024-01-24T05:05:12.083Z,100.00
2024-01-24T05:07:42.271Z,100.00
2024-01-24T05:10:15.668Z,100.00
2024-01-24T05:12:45.817Z,100.00
2024-01-24T05:15:16.586Z,100.00
2024-01-24T05:17:46.780Z,100.00
2024-01-24T05:20:18.657Z,100.00
2024-01-24T05:22:50.841Z,100.00
2024-01-24T05:25:23.646Z,100.00
2024-01-24T05:27:53.847Z,100.00
2024-01-24T05:30:34.712Z,100.00
2024-01-24T05:33:07.008Z,100.00
2024-01-24T05:35:37.108Z,100.00
2024-01-24T05:38:07.650Z,100.00
2024-01-24T05:40:40.389Z,100.00
2024-01-24T05:43:10.668Z,100.00
2024-01-24T05:45:41.337Z,100.00
2024-01-24T05:48:12.264Z,100.00
2024-01-24T05:50:42.413Z,100.00
2024-01-24T05:53:12.505Z,100.00
2024-01-24T05:55:45.193Z,100.00
2024-01-24T05:58:15.334Z,100.00
2024-01-24T06:00:45.472Z,100.00
2024-01-24T06:03:16.497Z,100.00
2024-01-24T06:05:46.793Z,100.00
2024-01-24T06:08:16.921Z,100.00
2024-01-24T06:10:49.644Z,100.00
2024-01-24T06:13:19.766Z,100.00
2024-01-24T06:15:49.954Z,100.00
2024-01-24T06:18:20.186Z,100.00
2024-01-24T06:20:50.488Z,100.00
2024-01-24T06:23:20.745Z,100.00
2024-01-24T06:25:53.503Z,100.00
2024-01-24T06:28:23.658Z,100.00
2024-01-24T06:30:54.418Z,100.00
2024-01-24T06:33:25.729Z,100.00
2024-01-24T06:35:56.103Z,100.00
2024-01-24T06:38:26.216Z,100.00
2024-01-24T06:40:59.712Z,100.00
2024-01-24T06:43:30.344Z,100.00
2024-01-24T06:46:00.498Z,100.00
2024-01-24T06:48:30.680Z,100.00
2024-01-24T06:51:00.881Z,100.00
2024-01-24T06:53:31.038Z,100.00
2024-01-24T06:56:05.156Z,100.00
2024-01-24T06:58:35.220Z,100.00
2024-01-24T07:01:05.428Z,100.00
2024-01-24T07:03:35.680Z,100.00
2024-01-24T07:06:07.188Z,100.00
2024-01-24T07:08:40.092Z,99.17
2024-01-24T07:11:14.277Z,97.42
2024-01-24T07:13:44.468Z,93.65
2024-01-24T07:16:14.577Z,93.64
2024-01-24T07:18:44.826Z,92.77
2024-01-24T07:21:15.130Z,92.25
2024-01-24T07:23:46.458Z,90.92
2024-01-24T07:26:19.228Z,90.71
2024-01-24T07:28:49.614Z,90.89
2024-01-24T07:31:19.668Z,91.24
2024-01-24T07:33:49.895Z,88.77
2024-01-24T07:36:22.321Z,88.82
2024-01-24T07:38:52.411Z,86.80
2024-01-24T07:41:25.090Z,86.39
2024-01-24T07:43:59.284Z,87.06
2024-01-24T07:46:30.749Z,87.22
2024-01-24T07:49:00.959Z,85.73
2024-01-24T07:51:31.524Z,85.09
2024-01-24T07:54:01.738Z,84.31
2024-01-24T07:56:34.554Z,84.25
2024-01-24T07:59:05.525Z,84.72
2024-01-24T08:01:35.930Z,84.16
2024-01-24T08:04:06.273Z,84.38
2024-01-24T08:06:36.552Z,85.09
2024-01-24T08:09:08.388Z,84.11
2024-01-24T08:11:44.680Z,83.44
2024-01-24T08:14:15.184Z,83.08
2024-01-24T08:17:03.103Z,81.98
2024-01-24T08:19:33.355Z,83.24
2024-01-24T08:22:05.092Z,82.87
2024-01-24T08:24:35.659Z,81.68
2024-01-24T08:27:08.471Z,82.24
2024-01-24T08:29:38.703Z,81.75
2024-01-24T08:32:09.424Z,82.25
2024-01-24T08:34:40.464Z,82.51
2024-01-24T08:37:10.679Z,81.10
2024-01-24T08:39:40.832Z,81.21
2024-01-24T08:42:14.561Z,81.27
2024-01-24T08:44:44.821Z,80.57
2024-01-24T08:47:14.935Z,80.53
2024-01-24T08:49:45.727Z,78.10
2024-01-24T08:52:15.926Z,79.29
2024-01-24T08:54:47.144Z,78.14
2024-01-24T08:57:20.367Z,79.02
2024-01-24T08:59:51.505Z,78.98
2024-01-24T09:02:22.575Z,78.67
2024-01-24T09:04:57.406Z,78.22
2024-01-24T09:07:27.552Z,77.50
2024-01-24T09:09:57.687Z,78.29
2024-01-24T09:12:31.984Z,78.23
2024-01-24T09:15:02.333Z,78.01
2024-01-24T09:17:33.718Z,78.63
2024-01-24T09:20:05.003Z,78.11
2024-01-24T09:22:35.472Z,78.51
2024-01-24T09:25:10.789Z,78.05
2024-01-24T09:27:45.694Z,78.44
2024-01-24T09:30:17.258Z,79.08
2024-01-24T09:32:47.598Z,79.05
2024-01-24T09:35:18.391Z,77.44
2024-01-24T09:37:49.029Z,77.74
2024-01-24T09:40:20.411Z,77.95
2024-01-24T09:42:53.356Z,77.85
2024-01-24T09:45:26.418Z,78.46
2024-01-24T09:47:58.842Z,77.75
2024-01-24T09:50:30.268Z,78.28
2024-01-24T09:53:00.933Z,77.41
2024-01-24T09:55:33.238Z,77.37
2024-01-24T09:58:08.863Z,76.80
2024-01-24T10:00:40.763Z,77.78
2024-01-24T10:03:11.776Z,76.49
2024-01-24T10:05:42.711Z,77.21
2024-01-24T10:08:12.987Z,76.17
2024-01-24T10:10:43.938Z,76.45
2024-01-24T10:13:16.659Z,77.08
2024-01-24T10:15:46.789Z,77.41
2024-01-24T10:18:17.138Z,75.99
2024-01-24T10:20:53.204Z,76.59
2024-01-24T10:23:25.016Z,76.86
2024-01-24T10:25:55.412Z,76.38
2024-01-24T10:28:28.687Z,76.23
2024-01-24T10:30:59.143Z,76.06
2024-01-24T10:33:29.527Z,76.62
2024-01-24T10:36:05.174Z,74.60
2024-01-24T10:38:43.532Z,75.43
2024-01-24T10:41:18.163Z,75.25
2024-01-24T10:43:54.236Z,75.37
2024-01-24T10:46:24.375Z,74.64
2024-01-24T10:48:55.590Z,74.14
2024-01-24T10:51:27.524Z,74.91
2024-01-24T10:53:59.225Z,74.60
2024-01-24T10:56:31.414Z,74.93
2024-01-24T10:59:05.925Z,75.49
2024-01-24T11:01:36.402Z,75.65
2024-01-24T11:04:10.200Z,75.05
2024-01-24T11:06:48.976Z,75.06
2024-01-24T11:09:27.102Z,74.94
2024-01-24T11:12:01.452Z,75.16
2024-01-24T11:14:38.438Z,75.44
2024-01-24T11:17:09.065Z,75.73
2024-01-24T11:19:39.666Z,75.27
2024-01-24T11:22:20.014Z,74.37
2024-01-24T11:24:56.803Z,74.95
2024-01-24T11:27:34.169Z,75.21
2024-01-24T11:30:20.321Z,74.40
2024-01-24T11:33:06.151Z,74.18
2024-01-24T11:35:38.788Z,74.54
2024-01-24T11:38:20.035Z,74.41
2024-01-24T11:40:56.728Z,74.18
2024-01-24T11:43:28.886Z,74.04
2024-01-24T11:46:05.115Z,73.54
2024-01-24T11:48:38.296Z,73.80
2024-01-24T11:51:11.527Z,73.40
2024-01-24T11:53:41.812Z,73.88
2024-01-24T11:56:15.897Z,74.29
2024-01-24T11:58:46.355Z,73.65
2024-01-24T12:01:19.174Z,73.58
2024-01-24T12:03:51.685Z,73.74
2024-01-24T12:06:22.566Z,74.22
2024-01-24T12:08:54.385Z,73.45
2024-01-24T12:11:25.912Z,73.60
2024-01-24T12:13:56.158Z,73.39
2024-01-24T12:16:31.647Z,73.80
2024-01-24T12:19:02.926Z,73.63
2024-01-24T12:21:35.039Z,73.72
2024-01-24T12:24:05.476Z,72.99
2024-01-24T12:26:36.697Z,73.22
2024-01-24T12:29:11.874Z,73.43
2024-01-24T12:31:47.183Z,72.91
2024-01-24T12:34:18.360Z,73.44
2024-01-24T12:36:49.376Z,73.19
2024-01-24T12:39:21.150Z,73.92
2024-01-24T12:41:51.712Z,73.76
2024-01-24T12:44:24.415Z,74.07
2024-01-24T12:47:02.764Z,74.71
2024-01-24T12:49:33.126Z,74.22
2024-01-24T12:52:03.612Z,73.79
2024-01-24T12:54:33.845Z,73.98
2024-01-24T12:57:03.971Z,73.24
2024-01-24T12:59:34.054Z,73.37
2024-01-24T13:02:07.104Z,73.04
2024-01-24T13:04:37.459Z,72.73
2024-01-24T13:07:08.321Z,72.29
2024-01-24T13:09:42.954Z,73.16
2024-01-24T13:12:17.181Z,73.19
2024-01-24T13:14:47.512Z,73.70
2024-01-24T13:17:22.197Z,72.96
2024-01-24T13:19:52.563Z,72.98
2024-01-24T13:22:22.789Z,72.28
2024-01-24T13:24:55.272Z,72.61
2024-01-24T13:27:26.228Z,73.46
2024-01-24T13:29:56.441Z,73.79
2024-01-24T13:32:29.503Z,73.32
2024-01-24T13:35:00.253Z,73.46
2024-01-24T13:37:30.638Z,73.37
2024-01-24T13:40:00.973Z,73.54
2024-01-24T13:42:31.536Z,72.70
2024-01-24T13:45:01.905Z,72.90
2024-01-24T13:47:35.075Z,72.37
2024-01-24T13:50:06.933Z,72.90
2024-01-24T13:52:37.093Z,72.83
2024-01-24T13:55:09.651Z,72.51
2024-01-24T13:57:43.751Z,72.37
2024-01-24T14:00:17.047Z,72.32
2024-01-24T14:02:50.031Z,72.34
2024-01-24T14:05:20.849Z,72.70
2024-01-24T14:07:51.058Z,73.02
2024-01-24T14:10:21.483Z,73.06
2024-01-24T14:12:51.968Z,73.34
2024-01-24T14:15:32.965Z,73.55
2024-01-24T14:18:09.577Z,73.81
2024-01-24T14:20:40.496Z,73.87
2024-01-24T14:23:11.826Z,74.00
2024-01-24T14:25:41.885Z,73.93
2024-01-24T14:28:12.156Z,74.18
2024-01-24T14:30:42.503Z,73.96
2024-01-24T14:33:20.404Z,73.77
2024-01-24T14:35:54.404Z,74.15
2024-01-24T14:38:24.509Z,74.17
2024-01-24T14:40:54.671Z,73.93
2024-01-24T14:43:24.912Z,74.37
2024-01-24T14:45:55.193Z,74.80
2024-01-24T14:48:28.224Z,73.84
2024-01-24T14:50:58.400Z,73.69
2024-01-24T14:53:28.590Z,74.01
2024-01-24T14:55:58.714Z,74.27
2024-01-24T14:58:29.418Z,73.74
2024-01-24T15:00:59.710Z,74.01
2024-01-24T15:03:32.864Z,74.19
2024-01-24T15:06:03.167Z,74.58
2024-01-24T15:08:33.479Z,75.23
2024-01-24T15:11:03.640Z,75.02
2024-01-24T15:13:34.124Z,75.29
2024-01-24T15:16:04.865Z,75.67
2024-01-24T15:18:39.704Z,74.96
2024-01-24T15:21:13.700Z,74.82
2024-01-24T15:23:45.815Z,75.37
2024-01-24T15:26:16.873Z,75.14
2024-01-24T15:28:49.690Z,74.70
2024-01-24T15:31:21.128Z,75.40
2024-01-24T15:33:54.907Z,74.65
2024-01-24T15:36:25.302Z,74.57
2024-01-24T15:38:56.203Z,75.31
2024-01-24T15:41:26.433Z,75.50
2024-01-24T15:43:56.624Z,74.88
2024-01-24T15:46:27.106Z,75.06
2024-01-24T15:49:00.353Z,75.39
2024-01-24T15:51:30.809Z,75.76
2024-01-24T15:54:01.195Z,75.77
2024-01-24T15:56:31.613Z,75.49
2024-01-24T15:59:02.867Z,75.47
2024-01-24T16:01:33.083Z,75.35
2024-01-24T16:04:06.230Z,75.90
2024-01-24T16:06:36.963Z,76.31
2024-01-24T16:09:07.647Z,75.52
2024-01-24T16:11:38.223Z,76.17
2024-01-24T16:14:09.117Z,76.76
2024-01-24T16:16:39.522Z,76.70
2024-01-24T16:19:12.494Z,76.72
2024-01-24T16:21:46.696Z,76.69
2024-01-24T16:24:16.760Z,76.54
2024-01-24T16:26:46.839Z,77.03
2024-01-24T16:29:17.259Z,76.85
2024-01-24T16:31:47.539Z,76.86
2024-01-24T16:34:20.334Z,76.96
2024-01-24T16:36:50.475Z,77.17
2024-01-24T16:39:20.647Z,76.95
2024-01-24T16:41:50.768Z,76.92
2024-01-24T16:44:23.645Z,76.46
2024-01-24T16:46:53.769Z,77.18
2024-01-24T16:49:26.567Z,76.61
2024-01-24T16:51:56.720Z,76.79
2024-01-24T16:54:26.873Z,77.18
2024-01-24T16:56:57.092Z,77.61
2024-01-24T16:59:27.163Z,76.93
2024-01-24T17:01:57.291Z,77.09
2024-01-24T17:04:30.458Z,77.10
2024-01-24T17:07:00.768Z,77.47
2024-01-24T17:09:30.849Z,77.31
2024-01-24T17:12:00.943Z,77.88
2024-01-24T17:14:32.847Z,77.89
2024-01-24T17:17:04.800Z,78.05
2024-01-24T17:19:37.662Z,78.08
2024-01-24T17:22:08.018Z,78.56
2024-01-24T17:24:38.199Z,78.48
2024-01-24T17:27:09.876Z,79.00
2024-01-24T17:29:42.060Z,78.17
2024-01-24T17:32:12.332Z,78.73
2024-01-24T17:34:45.319Z,78.89
2024-01-24T17:37:16.234Z,79.45
2024-01-24T17:40:20.961Z,78.95
2024-01-24T17:43:00.642Z,79.33
2024-01-24T17:45:30.850Z,79.54
2024-01-24T17:48:01.168Z,79.43
2024-01-24T17:50:34.593Z,79.50
2024-01-24T17:53:05.068Z,79.53
2024-01-24T17:55:35.475Z,79.90
2024-01-24T17:58:05.733Z,79.75
2024-01-24T18:00:36.428Z,79.93
2024-01-24T18:03:07.087Z,80.18
2024-01-24T18:05:40.059Z,80.35
2024-01-24T18:08:10.824Z,80.23
2024-01-24T18:10:40.896Z,80.17
2024-01-24T18:13:11.010Z,80.06
2024-01-24T18:15:44.114Z,80.18
2024-01-24T18:18:14.357Z,80.36
2024-01-24T18:20:47.120Z,81.28
2024-01-24T18:23:17.226Z,80.83
2024-01-24T18:25:48.799Z,81.04
2024-01-24T18:28:19.071Z,80.75
2024-01-24T18:30:49.328Z,80.52
2024-01-24T18:33:20.066Z,80.33
2024-01-24T18:35:52.884Z,80.51
2024-01-24T18:38:22.995Z,80.66
2024-01-24T18:40:53.063Z,81.17
2024-01-24T18:43:23.867Z,81.23
2024-01-24T18:45:54.595Z,81.19
2024-01-24T18:48:24.955Z,80.89
2024-01-24T18:50:58.136Z,80.74
2024-01-24T19:01:35.938Z,81.59
2024-01-24T19:04:06.296Z,81.01
2024-01-24T19:06:39.748Z,81.33
2024-01-24T19:09:09.972Z,81.60
2024-01-24T19:11:40.262Z,81.60
2024-01-24T19:14:10.655Z,81.15
2024-01-24T19:16:40.887Z,81.13
2024-01-24T19:19:11.376Z,81.27
2024-01-24T19:21:47.465Z,81.77
2024-01-24T19:24:17.592Z,81.70
2024-01-24T19:26:47.745Z,81.78
2024-01-24T19:29:21.018Z,81.56
2024-01-24T19:31:54.534Z,81.12
2024-01-24T19:34:38.920Z,81.46
2024-01-24T19:37:19.645Z,81.82
2024-01-24T19:39:52.879Z,81.91
2024-01-24T19:42:28.855Z,81.81
2024-01-24T19:45:04.005Z,81.97
2024-01-24T19:47:39.985Z,82.06
2024-01-24T19:50:16.084Z,82.26
2024-01-24T19:52:53.460Z,82.05
2024-01-24T19:55:27.603Z,82.57
2024-01-24T19:58:01.045Z,82.71
2024-01-24T20:00:35.583Z,82.23
2024-01-24T20:03:09.187Z,82.31
2024-01-24T20:05:42.444Z,82.20
2024-01-24T20:08:18.050Z,82.04
2024-01-24T20:10:53.412Z,82.52
2024-01-24T20:13:27.676Z,82.35
2024-01-24T20:16:00.889Z,82.55
2024-01-24T20:18:36.841Z,82.64
2024-01-24T20:21:10.824Z,82.67
2024-01-24T20:23:50.249Z,82.55
2024-01-24T20:26:29.323Z,82.07
2024-01-24T20:29:08.375Z,82.22
2024-01-24T20:31:40.997Z,82.90
2024-01-24T20:34:14.635Z,82.78
2024-01-24T20:36:48.543Z,82.97
2024-01-24T20:39:27.073Z,83.59
2024-01-24T20:42:08.676Z,83.66
2024-01-24T20:44:47.562Z,83.26
2024-01-24T20:47:20.415Z,83.33
2024-01-24T20:49:53.645Z,83.27
2024-01-24T20:52:30.067Z,83.54
2024-01-24T20:55:06.851Z,83.86
2024-01-24T20:57:42.928Z,84.10
2024-01-24T21:00:18.005Z,84.33
2024-01-24T21:02:55.705Z,84.52
2024-01-24T21:05:31.201Z,84.57
2024-01-24T21:08:04.844Z,84.47
2024-01-24T21:10:48.657Z,84.67
2024-01-24T21:13:29.193Z,85.06
2024-01-24T21:16:01.855Z,85.11
2024-01-24T21:18:32.398Z,84.72
2024-01-24T21:21:02.822Z,85.33
2024-01-24T21:23:33.862Z,85.49
2024-01-24T21:26:07.255Z,85.45
2024-01-24T21:28:37.586Z,85.27
2024-01-24T21:31:10.818Z,85.33
2024-01-24T21:33:44.198Z,85.04
2024-01-24T21:36:14.419Z,85.34
2024-01-24T21:38:45.048Z,85.32
2024-01-24T21:41:17.934Z,85.18
2024-01-24T21:43:48.305Z,85.21
2024-01-24T21:46:21.331Z,85.57
2024-01-24T21:48:51.771Z,85.47
2024-01-24T21:51:22.018Z,85.96
2024-01-24T21:53:52.375Z,85.34
2024-01-24T21:56:25.299Z,85.32
2024-01-24T21:58:56.644Z,85.37
2024-01-24T22:01:27.229Z,85.25
2024-01-24T22:03:57.577Z,85.34
2024-01-24T22:06:27.888Z,85.78
2024-01-24T22:08:58.464Z,85.47
2024-01-24T22:11:31.440Z,85.77
2024-01-24T22:14:01.553Z,86.55
2024-01-24T22:16:31.840Z,85.85
2024-01-24T22:19:02.787Z,86.21
2024-01-24T22:21:33.472Z,86.31
2024-01-24T22:24:04.433Z,86.53
2024-01-24T22:26:37.328Z,86.06
2024-01-24T22:29:08.470Z,86.28
2024-01-24T22:31:38.843Z,86.53
2024-01-24T22:34:09.268Z,86.70
2024-01-24T22:36:39.593Z,86.49
2024-01-24T22:39:09.939Z,86.39
2024-01-24T22:41:46.106Z,86.10
2024-01-24T22:44:16.461Z,86.55
2024-01-24T22:46:46.823Z,86.44
2024-01-24T22:49:17.258Z,86.66
2024-01-24T22:51:47.782Z,86.83
2024-01-24T22:54:17.927Z,86.48
2024-01-24T22:56:50.864Z,87.10
2024-01-24T22:59:21.472Z,87.28
2024-01-24T23:01:52.075Z,86.68
2024-01-24T23:04:22.626Z,87.12
2024-01-24T23:06:53.117Z,87.34
2024-01-24T23:09:23.681Z,87.83
2024-01-24T23:11:56.645Z,87.80
2024-01-24T23:14:26.918Z,87.73
2024-01-24T23:16:57.150Z,87.48
2024-01-24T23:19:27.320Z,87.19
2024-01-24T23:21:58.012Z,87.41
2024-01-24T23:24:28.584Z,87.89
2024-01-24T23:27:01.474Z,87.32
2024-01-24T23:29:31.866Z,87.42
2024-01-24T23:32:01.988Z,87.09
2024-01-24T23:34:32.299Z,87.02
2024-01-24T23:37:02.776Z,86.83
2024-01-24T23:39:33.063Z,86.69
2024-01-24T23:42:05.902Z,86.43
2024-01-24T23:44:36.245Z,86.59
2024-01-24T23:47:06.862Z,87.19
2024-01-24T23:49:37.662Z,86.94
2024-01-24T23:52:09.073Z,87.24
2024-01-24T23:54:39.392Z,87.06
2024-01-24T23:57:12.096Z,87.17
2024-01-24T23:59:42.164Z,87.60
